sensor_id;sensor_type;location;lat;lon;timestamp;P1;durP1;ratioP1;P2;durP2;ratioP2
46717;SDS011;32448;44.960;-0.698;2024-01-15T00:00:20;59.45;;;36.05;;
46717;SDS011;32448;44.960;-0.698;2024-01-15T00:02:47;54.10;;;34.63;;
46717;SDS011;32448;44.960;-0.698;2024-01-15T00:05:14;56.30;;;33.92;;
46717;SDS011;32448;44.960;-0.698;2024-01-15T00:07:41;54.92;;;34.25;;
46717;SDS011;32448;44.960;-0.698;2024-01-15T00:10:08;62.50;;;37.80;;
46717;SDS011;32448;44.960;-0.698;2024-01-15T00:12:34;57.70;;;35.90;;
46717;SDS011;32448;44.960;-0.698;2024-01-15T00:15:01;64.90;;;37.55;;
46717;SDS011;32448;44.960;-0.698;2024-01-15T00:17:28;58.53;;;36.88;;
46717;SDS011;32448;44.960;-0.698;2024-01-15T00:19:55;64.35;;;40.13;;
46717;SDS011;32448;44.960;-0.698;2024-01-15T00:22:24;73.65;;;44.72;;
46717;SDS011;32448;44.960;-0.698;2024-01-15T00:24:53;66.65;;;40.45;;
46717;SDS011;32448;44.960;-0.698;2024-01-15T00:27:21;61.30;;;37.35;;
46717;SDS011;32448;44.960;-0.698;2024-01-15T00:29:48;51.92;;;33.95;;
46717;SDS011;32448;44.960;-0.698;2024-01-15T00:32:16;57.38;;;35.00;;
46717;SDS011;32448;44.960;-0.698;2024-01-15T00:34:43;55.08;;;34.47;;
46717;SDS011;32448;44.960;-0.698;2024-01-15T00:37:10;54.15;;;34.15;;
46717;SDS011;32448;44.960;-0.698;2024-01-15T00:39:37;54.67;;;34.28;;
46717;SDS011;32448;44.960;-0.698;2024-01-15T00:42:04;55.35;;;35.60;;
46717;SDS011;32448;44.960;-0.698;2024-01-15T00:44:31;52.78;;;34.00;;
46717;SDS011;32448;44.960;-0.698;2024-01-15T00:46:58;53.45;;;34.58;;
46717;SDS011;32448;44.960;-0.698;2024-01-15T00:49:26;52.10;;;32.65;;
46717;SDS011;32448;44.960;-0.698;2024-01-15T00:51:53;55.60;;;36.10;;
46717;SDS011;32448;44.960;-0.698;2024-01-15T00:54:20;55.58;;;34.70;;
46717;SDS011;32448;44.960;-0.698;2024-01-15T00:56:47;48.33;;;33.05;;
46717;SDS011;32448;44.960;-0.698;2024-01-15T00:59:14;50.80;;;33.92;;
46717;SDS011;32448;44.960;-0.698;2024-01-15T01:01:44;54.30;;;36.05;;
46717;SDS011;32448;44.960;-0.698;2024-01-15T01:04:12;51.92;;;34.42;;
46717;SDS011;32448;44.960;-0.698;2024-01-15T01:06:39;54.97;;;34.55;;
46717;SDS011;32448;44.960;-0.698;2024-01-15T01:09:06;60.97;;;37.13;;
46717;SDS011;32448;44.960;-0.698;2024-01-15T01:11:33;57.10;;;37.25;;
46717;SDS011;32448;44.960;-0.698;2024-01-15T01:14:00;64.82;;;41.50;;
46717;SDS011;32448;44.960;-0.698;2024-01-15T01:16:28;68.03;;;44.20;;
46717;SDS011;32448;44.960;-0.698;2024-01-15T01:18:55;62.05;;;40.67;;
46717;SDS011;32448;44.960;-0.698;2024-01-15T01:21:21;63.65;;;41.28;;
46717;SDS011;32448;44.960;-0.698;2024-01-15T01:23:48;61.28;;;39.70;;
46717;SDS011;32448;44.960;-0.698;2024-01-15T01:26:16;55.03;;;37.08;;
46717;SDS011;32448;44.960;-0.698;2024-01-15T01:28:44;58.88;;;38.22;;
46717;SDS011;32448;44.960;-0.698;2024-01-15T01:31:11;60.00;;;37.45;;
46717;SDS011;32448;44.960;-0.698;2024-01-15T01:33:38;54.83;;;36.55;;
46717;SDS011;32448;44.960;-0.698;2024-01-15T01:36:09;57.70;;;36.42;;
46717;SDS011;32448;44.960;-0.698;2024-01-15T01:38:37;60.20;;;38.63;;
46717;SDS011;32448;44.960;-0.698;2024-01-15T01:41:04;60.63;;;38.30;;
46717;SDS011;32448;44.960;-0.698;2024-01-15T01:43:31;59.95;;;38.33;;
46717;SDS011;32448;44.960;-0.698;2024-01-15T01:45:58;64.47;;;40.63;;
46717;SDS011;32448;44.960;-0.698;2024-01-15T01:48:27;59.35;;;37.95;;
46717;SDS011;32448;44.960;-0.698;2024-01-15T01:50:57;60.63;;;39.17;;
46717;SDS011;32448;44.960;-0.698;2024-01-15T01:53:26;61.28;;;38.90;;
46717;SDS011;32448;44.960;-0.698;2024-01-15T01:55:54;65.78;;;40.33;;
46717;SDS011;32448;44.960;-0.698;2024-01-15T01:58:23;60.17;;;38.95;;
46717;SDS011;32448;44.960;-0.698;2024-01-15T02:00:51;57.08;;;38.17;;
46717;SDS011;32448;44.960;-0.698;2024-01-15T02:03:19;64.57;;;40.03;;
46717;SDS011;32448;44.960;-0.698;2024-01-15T02:05:47;61.92;;;38.05;;
46717;SDS011;32448;44.960;-0.698;2024-01-15T02:08:16;57.33;;;37.53;;
46717;SDS011;32448;44.960;-0.698;2024-01-15T02:10:43;64.13;;;39.13;;
46717;SDS011;32448;44.960;-0.698;2024-01-15T02:13:10;54.38;;;36.00;;
46717;SDS011;32448;44.960;-0.698;2024-01-15T02:15:37;54.97;;;36.28;;
46717;SDS011;32448;44.960;-0.698;2024-01-15T02:18:04;62.33;;;37.45;;
46717;SDS011;32448;44.960;-0.698;2024-01-15T02:20:34;58.53;;;37.67;;
46717;SDS011;32448;44.960;-0.698;2024-01-15T02:23:10;55.90;;;37.47;;
46717;SDS011;32448;44.960;-0.698;2024-01-15T02:25:41;57.20;;;37.72;;
46717;SDS011;32448;44.960;-0.698;2024-01-15T02:28:12;54.80;;;36.50;;
46717;SDS011;32448;44.960;-0.698;2024-01-15T02:30:41;57.97;;;36.90;;
46717;SDS011;32448;44.960;-0.698;2024-01-15T02:33:08;60.25;;;39.13;;
46717;SDS011;32448;44.960;-0.698;2024-01-15T02:35:37;64.45;;;41.92;;
46717;SDS011;32448;44.960;-0.698;2024-01-15T02:38:04;65.03;;;44.70;;
46717;SDS011;32448;44.960;-0.698;2024-01-15T02:40:33;69.28;;;43.28;;
46717;SDS011;32448;44.960;-0.698;2024-01-15T02:43:01;73.13;;;47.10;;
46717;SDS011;32448;44.960;-0.698;2024-01-15T02:45:28;79.18;;;50.78;;
46717;SDS011;32448;44.960;-0.698;2024-01-15T02:47:55;76.00;;;50.38;;
46717;SDS011;32448;44.960;-0.698;2024-01-15T02:50:22;85.07;;;54.08;;
46717;SDS011;32448;44.960;-0.698;2024-01-15T02:52:49;78.70;;;51.10;;
46717;SDS011;32448;44.960;-0.698;2024-01-15T02:55:16;84.00;;;53.35;;
46717;SDS011;32448;44.960;-0.698;2024-01-15T02:57:43;89.43;;;56.80;;
46717;SDS011;32448;44.960;-0.698;2024-01-15T03:00:10;92.15;;;59.80;;
46717;SDS011;32448;44.960;-0.698;2024-01-15T03:02:38;91.43;;;58.40;;
46717;SDS011;32448;44.960;-0.698;2024-01-15T03:05:10;94.88;;;58.17;;
46717;SDS011;32448;44.960;-0.698;2024-01-15T03:07:37;90.70;;;55.65;;
46717;SDS011;32448;44.960;-0.698;2024-01-15T03:10:04;82.53;;;54.53;;
46717;SDS011;32448;44.960;-0.698;2024-01-15T03:12:32;86.53;;;55.95;;
46717;SDS011;32448;44.960;-0.698;2024-01-15T03:14:59;90.68;;;58.95;;
46717;SDS011;32448;44.960;-0.698;2024-01-15T03:17:26;86.30;;;55.83;;
46717;SDS011;32448;44.960;-0.698;2024-01-15T03:19:53;87.43;;;54.78;;
46717;SDS011;32448;44.960;-0.698;2024-01-15T03:22:20;86.70;;;57.13;;
46717;SDS011;32448;44.960;-0.698;2024-01-15T03:24:47;93.63;;;61.33;;
46717;SDS011;32448;44.960;-0.698;2024-01-15T03:27:14;94.63;;;60.17;;
46717;SDS011;32448;44.960;-0.698;2024-01-15T03:29:41;80.35;;;52.78;;
46717;SDS011;32448;44.960;-0.698;2024-01-15T03:32:08;85.68;;;56.05;;
46717;SDS011;32448;44.960;-0.698;2024-01-15T03:34:35;89.43;;;57.42;;
46717;SDS011;32448;44.960;-0.698;2024-01-15T03:37:02;81.82;;;53.95;;
46717;SDS011;32448;44.960;-0.698;2024-01-15T03:39:30;91.47;;;58.03;;
46717;SDS011;32448;44.960;-0.698;2024-01-15T03:41:56;86.75;;;56.08;;
46717;SDS011;32448;44.960;-0.698;2024-01-15T03:44:24;84.43;;;54.50;;
46717;SDS011;32448;44.960;-0.698;2024-01-15T03:46:50;81.35;;;53.33;;
46717;SDS011;32448;44.960;-0.698;2024-01-15T03:49:17;86.90;;;56.90;;
46717;SDS011;32448;44.960;-0.698;2024-01-15T03:51:44;94.53;;;59.95;;
46717;SDS011;32448;44.960;-0.698;2024-01-15T03:54:11;93.88;;;58.95;;
46717;SDS011;32448;44.960;-0.698;2024-01-15T03:56:38;93.03;;;60.15;;
46717;SDS011;32448;44.960;-0.698;2024-01-15T03:59:05;91.35;;;58.17;;
46717;SDS011;32448;44.960;-0.698;2024-01-15T04:01:32;93.15;;;59.58;;
46717;SDS011;32448;44.960;-0.698;2024-01-15T04:03:58;85.32;;;54.92;;
46717;SDS011;32448;44.960;-0.698;2024-01-15T04:06:25;86.45;;;55.17;;
46717;SDS011;32448;44.960;-0.698;2024-01-15T04:08:52;92.28;;;57.00;;
46717;SDS011;32448;44.960;-0.698;2024-01-15T04:11:19;85.60;;;53.95;;
46717;SDS011;32448;44.960;-0.698;2024-01-15T04:13:46;85.50;;;52.80;;
46717;SDS011;32448;44.960;-0.698;2024-01-15T04:16:13;84.38;;;51.78;;
46717;SDS011;32448;44.960;-0.698;2024-01-15T04:18:39;80.20;;;50.90;;
46717;SDS011;32448;44.960;-0.698;2024-01-15T04:21:06;72.22;;;46.75;;
46717;SDS011;32448;44.960;-0.698;2024-01-15T04:23:33;73.35;;;49.35;;
46717;SDS011;32448;44.960;-0.698;2024-01-15T04:26:00;80.18;;;50.63;;
46717;SDS011;32448;44.960;-0.698;2024-01-15T04:28:27;76.65;;;49.97;;
46717;SDS011;32448;44.960;-0.698;2024-01-15T04:30:54;81.45;;;50.55;;
46717;SDS011;32448;44.960;-0.698;2024-01-15T04:33:20;76.20;;;48.55;;
46717;SDS011;32448;44.960;-0.698;2024-01-15T04:35:48;74.05;;;46.67;;
46717;SDS011;32448;44.960;-0.698;2024-01-15T04:38:15;74.53;;;46.15;;
46717;SDS011;32448;44.960;-0.698;2024-01-15T04:40:42;82.65;;;52.88;;
46717;SDS011;32448;44.960;-0.698;2024-01-15T04:43:09;75.03;;;48.65;;
46717;SDS011;32448;44.960;-0.698;2024-01-15T04:45:35;77.75;;;51.47;;
46717;SDS011;32448;44.960;-0.698;2024-01-15T04:48:02;82.82;;;52.92;;
46717;SDS011;32448;44.960;-0.698;2024-01-15T04:50:30;84.53;;;52.58;;
46717;SDS011;32448;44.960;-0.698;2024-01-15T04:52:56;75.97;;;47.10;;
46717;SDS011;32448;44.960;-0.698;2024-01-15T04:55:23;71.60;;;45.45;;
46717;SDS011;32448;44.960;-0.698;2024-01-15T04:57:50;70.72;;;46.38;;
46717;SDS011;32448;44.960;-0.698;2024-01-15T05:00:17;73.72;;;49.70;;
46717;SDS011;32448;44.960;-0.698;2024-01-15T05:02:44;73.07;;;46.80;;
46717;SDS011;32448;44.960;-0.698;2024-01-15T05:05:11;73.03;;;47.75;;
46717;SDS011;32448;44.960;-0.698;2024-01-15T05:07:38;71.53;;;48.05;;
46717;SDS011;32448;44.960;-0.698;2024-01-15T05:10:05;79.85;;;49.85;;
46717;SDS011;32448;44.960;-0.698;2024-01-15T05:12:34;75.05;;;49.47;;
46717;SDS011;32448;44.960;-0.698;2024-01-15T05:15:01;72.15;;;46.60;;
46717;SDS011;32448;44.960;-0.698;2024-01-15T05:17:28;69.65;;;44.47;;
46717;SDS011;32448;44.960;-0.698;2024-01-15T05:19:55;66.55;;;43.60;;
46717;SDS011;32448;44.960;-0.698;2024-01-15T05:22:22;68.32;;;44.67;;
46717;SDS011;32448;44.960;-0.698;2024-01-15T05:24:51;75.43;;;46.22;;
46717;SDS011;32448;44.960;-0.698;2024-01-15T05:27:18;72.65;;;47.97;;
46717;SDS011;32448;44.960;-0.698;2024-01-15T05:29:45;75.53;;;47.92;;
46717;SDS011;32448;44.960;-0.698;2024-01-15T05:32:14;73.10;;;46.78;;
46717;SDS011;32448;44.960;-0.698;2024-01-15T05:34:41;69.28;;;45.38;;
46717;SDS011;32448;44.960;-0.698;2024-01-15T05:37:08;71.88;;;46.25;;
46717;SDS011;32448;44.960;-0.698;2024-01-15T05:39:37;75.65;;;49.10;;
46717;SDS011;32448;44.960;-0.698;2024-01-15T05:42:04;71.57;;;47.35;;
46717;SDS011;32448;44.960;-0.698;2024-01-15T05:44:31;69.97;;;43.97;;
46717;SDS011;32448;44.960;-0.698;2024-01-15T05:46:57;70.15;;;44.33;;
46717;SDS011;32448;44.960;-0.698;2024-01-15T05:49:24;72.95;;;45.50;;
46717;SDS011;32448;44.960;-0.698;2024-01-15T05:51:51;72.68;;;46.55;;
46717;SDS011;32448;44.960;-0.698;2024-01-15T05:54:18;71.85;;;44.63;;
46717;SDS011;32448;44.960;-0.698;2024-01-15T05:56:46;72.95;;;47.10;;
46717;SDS011;32448;44.960;-0.698;2024-01-15T05:59:13;68.45;;;45.00;;
46717;SDS011;32448;44.960;-0.698;2024-01-15T06:01:41;69.15;;;45.08;;
46717;SDS011;32448;44.960;-0.698;2024-01-15T06:04:08;64.10;;;41.33;;
46717;SDS011;32448;44.960;-0.698;2024-01-15T06:06:35;65.65;;;42.47;;
46717;SDS011;32448;44.960;-0.698;2024-01-15T06:09:02;65.50;;;42.22;;
46717;SDS011;32448;44.960;-0.698;2024-01-15T06:11:32;67.15;;;41.75;;
46717;SDS011;32448;44.960;-0.698;2024-01-15T06:13:59;60.47;;;40.67;;
46717;SDS011;32448;44.960;-0.698;2024-01-15T06:16:29;66.18;;;42.17;;
46717;SDS011;32448;44.960;-0.698;2024-01-15T06:18:56;71.47;;;45.35;;
46717;SDS011;32448;44.960;-0.698;2024-01-15T06:21:24;65.25;;;42.25;;
46717;SDS011;32448;44.960;-0.698;2024-01-15T06:23:51;66.03;;;41.45;;
46717;SDS011;32448;44.960;-0.698;2024-01-15T06:26:17;62.65;;;41.47;;
46717;SDS011;32448;44.960;-0.698;2024-01-15T06:28:44;69.20;;;43.85;;
46717;SDS011;32448;44.960;-0.698;2024-01-15T06:31:12;65.00;;;43.60;;
46717;SDS011;32448;44.960;-0.698;2024-01-15T06:33:39;63.47;;;41.70;;
46717;SDS011;32448;44.960;-0.698;2024-01-15T06:36:07;61.45;;;41.72;;
46717;SDS011;32448;44.960;-0.698;2024-01-15T06:38:34;62.65;;;39.67;;
46717;SDS011;32448;44.960;-0.698;2024-01-15T06:41:01;66.50;;;42.03;;
46717;SDS011;32448;44.960;-0.698;2024-01-15T06:43:27;64.63;;;42.30;;
46717;SDS011;32448;44.960;-0.698;2024-01-15T06:45:54;61.75;;;39.90;;
46717;SDS011;32448;44.960;-0.698;2024-01-15T06:48:21;60.75;;;39.65;;
46717;SDS011;32448;44.960;-0.698;2024-01-15T06:50:48;65.85;;;41.50;;
46717;SDS011;32448;44.960;-0.698;2024-01-15T06:53:15;61.38;;;39.00;;
46717;SDS011;32448;44.960;-0.698;2024-01-15T06:55:42;57.50;;;38.70;;
46717;SDS011;32448;44.960;-0.698;2024-01-15T06:58:09;56.40;;;36.92;;
46717;SDS011;32448;44.960;-0.698;2024-01-15T07:00:37;55.15;;;36.58;;
46717;SDS011;32448;44.960;-0.698;2024-01-15T07:03:04;54.60;;;36.55;;
46717;SDS011;32448;44.960;-0.698;2024-01-15T07:05:31;56.45;;;38.40;;
46717;SDS011;32448;44.960;-0.698;2024-01-15T07:07:58;54.15;;;36.50;;
46717;SDS011;32448;44.960;-0.698;2024-01-15T07:10:26;56.92;;;37.65;;
46717;SDS011;32448;44.960;-0.698;2024-01-15T07:12:53;55.00;;;37.03;;
46717;SDS011;32448;44.960;-0.698;2024-01-15T07:15:20;55.83;;;36.97;;
46717;SDS011;32448;44.960;-0.698;2024-01-15T07:17:47;53.95;;;34.88;;
46717;SDS011;32448;44.960;-0.698;2024-01-15T07:20:14;56.80;;;36.50;;
46717;SDS011;32448;44.960;-0.698;2024-01-15T07:22:41;51.70;;;34.63;;
46717;SDS011;32448;44.960;-0.698;2024-01-15T07:25:07;59.25;;;38.42;;
46717;SDS011;32448;44.960;-0.698;2024-01-15T07:27:34;51.15;;;34.30;;
46717;SDS011;32448;44.960;-0.698;2024-01-15T07:30:01;49.58;;;34.60;;
46717;SDS011;32448;44.960;-0.698;2024-01-15T07:32:30;48.88;;;32.15;;
46717;SDS011;32448;44.960;-0.698;2024-01-15T07:34:58;44.42;;;30.95;;
46717;SDS011;32448;44.960;-0.698;2024-01-15T07:37:26;49.97;;;33.35;;
46717;SDS011;32448;44.960;-0.698;2024-01-15T07:39:53;57.10;;;35.97;;
46717;SDS011;32448;44.960;-0.698;2024-01-15T07:42:20;47.78;;;32.83;;
46717;SDS011;32448;44.960;-0.698;2024-01-15T07:44:47;46.95;;;30.85;;
46717;SDS011;32448;44.960;-0.698;2024-01-15T07:47:14;44.85;;;29.77;;
46717;SDS011;32448;44.960;-0.698;2024-01-15T07:49:41;47.33;;;31.75;;
46717;SDS011;32448;44.960;-0.698;2024-01-15T07:52:08;45.40;;;30.38;;
46717;SDS011;32448;44.960;-0.698;2024-01-15T07:54:36;57.63;;;34.40;;
46717;SDS011;32448;44.960;-0.698;2024-01-15T07:57:03;46.35;;;29.13;;
46717;SDS011;32448;44.960;-0.698;2024-01-15T07:59:30;46.33;;;29.40;;
46717;SDS011;32448;44.960;-0.698;2024-01-15T08:01:58;45.72;;;29.95;;
46717;SDS011;32448;44.960;-0.698;2024-01-15T08:04:26;61.53;;;33.33;;
46717;SDS011;32448;44.960;-0.698;2024-01-15T08:06:53;50.95;;;31.63;;
46717;SDS011;32448;44.960;-0.698;2024-01-15T08:09:20;47.78;;;30.48;;
46717;SDS011;32448;44.960;-0.698;2024-01-15T08:11:50;44.90;;;29.88;;
46717;SDS011;32448;44.960;-0.698;2024-01-15T08:14:17;47.40;;;30.67;;
46717;SDS011;32448;44.960;-0.698;2024-01-15T08:16:44;42.88;;;28.83;;
46717;SDS011;32448;44.960;-0.698;2024-01-15T08:19:11;41.15;;;27.05;;
46717;SDS011;32448;44.960;-0.698;2024-01-15T08:21:38;44.05;;;27.83;;
46717;SDS011;32448;44.960;-0.698;2024-01-15T08:24:05;46.15;;;28.58;;
46717;SDS011;32448;44.960;-0.698;2024-01-15T08:26:32;43.50;;;27.58;;
46717;SDS011;32448;44.960;-0.698;2024-01-15T08:28:59;47.13;;;29.00;;
46717;SDS011;32448;44.960;-0.698;2024-01-15T08:31:26;41.78;;;26.58;;
46717;SDS011;32448;44.960;-0.698;2024-01-15T08:33:54;45.05;;;27.50;;
46717;SDS011;32448;44.960;-0.698;2024-01-15T08:36:22;48.35;;;28.95;;
46717;SDS011;32448;44.960;-0.698;2024-01-15T08:38:50;44.78;;;28.95;;
46717;SDS011;32448;44.960;-0.698;2024-01-15T08:41:17;46.90;;;28.55;;
46717;SDS011;32448;44.960;-0.698;2024-01-15T08:43:44;49.50;;;30.38;;
46717;SDS011;32448;44.960;-0.698;2024-01-15T08:46:11;48.63;;;30.90;;
46717;SDS011;32448;44.960;-0.698;2024-01-15T08:48:38;54.60;;;32.78;;
46717;SDS011;32448;44.960;-0.698;2024-01-15T08:51:06;46.53;;;29.75;;
46717;SDS011;32448;44.960;-0.698;2024-01-15T08:53:34;56.92;;;32.90;;
46717;SDS011;32448;44.960;-0.698;2024-01-15T08:56:01;56.35;;;31.50;;
46717;SDS011;32448;44.960;-0.698;2024-01-15T08:58:28;61.47;;;32.03;;
46717;SDS011;32448;44.960;-0.698;2024-01-15T09:00:55;52.90;;;30.60;;
46717;SDS011;32448;44.960;-0.698;2024-01-15T09:03:22;56.00;;;30.52;;
46717;SDS011;32448;44.960;-0.698;2024-01-15T09:05:49;49.50;;;28.98;;
46717;SDS011;32448;44.960;-0.698;2024-01-15T09:08:17;45.63;;;27.13;;
46717;SDS011;32448;44.960;-0.698;2024-01-15T09:10:44;51.67;;;27.70;;
46717;SDS011;32448;44.960;-0.698;2024-01-15T09:13:12;50.67;;;29.50;;
46717;SDS011;32448;44.960;-0.698;2024-01-15T09:15:39;78.90;;;34.88;;
46717;SDS011;32448;44.960;-0.698;2024-01-15T09:18:06;55.50;;;29.83;;
46717;SDS011;32448;44.960;-0.698;2024-01-15T09:20:34;56.30;;;30.00;;
46717;SDS011;32448;44.960;-0.698;2024-01-15T09:23:01;48.97;;;28.63;;
46717;SDS011;32448;44.960;-0.698;2024-01-15T09:25:29;47.95;;;27.02;;
46717;SDS011;32448;44.960;-0.698;2024-01-15T09:27:56;52.80;;;28.52;;
46717;SDS011;32448;44.960;-0.698;2024-01-15T09:30:23;55.95;;;29.42;;
46717;SDS011;32448;44.960;-0.698;2024-01-15T09:32:50;60.25;;;29.70;;
46717;SDS011;32448;44.960;-0.698;2024-01-15T09:35:17;55.30;;;29.25;;
46717;SDS011;32448;44.960;-0.698;2024-01-15T09:37:46;61.92;;;29.67;;
46717;SDS011;32448;44.960;-0.698;2024-01-15T09:40:14;57.92;;;28.33;;
46717;SDS011;32448;44.960;-0.698;2024-01-15T09:42:42;66.30;;;30.02;;
46717;SDS011;32448;44.960;-0.698;2024-01-15T09:45:10;58.75;;;29.20;;
46717;SDS011;32448;44.960;-0.698;2024-01-15T09:47:38;66.70;;;30.33;;
46717;SDS011;32448;44.960;-0.698;2024-01-15T09:50:12;60.42;;;28.63;;
46717;SDS011;32448;44.960;-0.698;2024-01-15T09:52:42;59.85;;;28.98;;
46717;SDS011;32448;44.960;-0.698;2024-01-15T09:55:10;53.55;;;25.45;;
46717;SDS011;32448;44.960;-0.698;2024-01-15T09:57:38;61.33;;;29.27;;
46717;SDS011;32448;44.960;-0.698;2024-01-15T10:00:06;53.90;;;27.55;;
46717;SDS011;32448;44.960;-0.698;2024-01-15T10:02:37;52.47;;;26.55;;
46717;SDS011;32448;44.960;-0.698;2024-01-15T10:05:04;52.83;;;26.40;;
46717;SDS011;32448;44.960;-0.698;2024-01-15T10:07:33;50.88;;;24.65;;
46717;SDS011;32448;44.960;-0.698;2024-01-15T10:10:02;52.33;;;26.45;;
46717;SDS011;32448;44.960;-0.698;2024-01-15T10:12:32;51.15;;;25.60;;
46717;SDS011;32448;44.960;-0.698;2024-01-15T10:14:59;50.75;;;26.15;;
46717;SDS011;32448;44.960;-0.698;2024-01-15T10:17:26;54.13;;;26.65;;
46717;SDS011;32448;44.960;-0.698;2024-01-15T10:19:54;46.67;;;25.05;;
46717;SDS011;32448;44.960;-0.698;2024-01-15T10:22:22;51.72;;;26.77;;
46717;SDS011;32448;44.960;-0.698;2024-01-15T10:24:49;59.30;;;29.13;;
46717;SDS011;32448;44.960;-0.698;2024-01-15T10:27:16;50.92;;;26.80;;
46717;SDS011;32448;44.960;-0.698;2024-01-15T10:29:43;61.10;;;27.58;;
46717;SDS011;32448;44.960;-0.698;2024-01-15T10:32:11;53.00;;;27.00;;
46717;SDS011;32448;44.960;-0.698;2024-01-15T10:34:38;56.17;;;28.15;;
46717;SDS011;32448;44.960;-0.698;2024-01-15T10:37:10;49.00;;;26.13;;
46717;SDS011;32448;44.960;-0.698;2024-01-15T10:39:37;55.28;;;27.88;;
46717;SDS011;32448;44.960;-0.698;2024-01-15T10:42:05;67.88;;;30.98;;
46717;SDS011;32448;44.960;-0.698;2024-01-15T10:44:34;58.35;;;30.13;;
46717;SDS011;32448;44.960;-0.698;2024-01-15T10:47:02;65.22;;;31.80;;
46717;SDS011;32448;44.960;-0.698;2024-01-15T10:49:29;59.10;;;28.95;;
46717;SDS011;32448;44.960;-0.698;2024-01-15T10:52:02;55.13;;;29.25;;
46717;SDS011;32448;44.960;-0.698;2024-01-15T10:54:30;56.40;;;28.52;;
46717;SDS011;32448;44.960;-0.698;2024-01-15T10:56:58;56.80;;;29.60;;
46717;SDS011;32448;44.960;-0.698;2024-01-15T10:59:25;73.85;;;33.72;;
46717;SDS011;32448;44.960;-0.698;2024-01-15T11:01:52;66.72;;;31.55;;
46717;SDS011;32448;44.960;-0.698;2024-01-15T11:04:21;61.40;;;30.83;;
46717;SDS011;32448;44.960;-0.698;2024-01-15T11:06:52;71.75;;;34.55;;
46717;SDS011;32448;44.960;-0.698;2024-01-15T11:09:22;77.15;;;34.63;;
46717;SDS011;32448;44.960;-0.698;2024-01-15T11:12:09;86.95;;;35.35;;
46717;SDS011;32448;44.960;-0.698;2024-01-15T11:14:41;77.03;;;34.05;;
46717;SDS011;32448;44.960;-0.698;2024-01-15T11:17:12;75.65;;;34.45;;
46717;SDS011;32448;44.960;-0.698;2024-01-15T11:24:56;80.10;;;32.67;;
46717;SDS011;32448;44.960;-0.698;2024-01-15T11:27:40;76.65;;;32.83;;
46717;SDS011;32448;44.960;-0.698;2024-01-15T11:30:14;73.85;;;30.92;;
46717;SDS011;32448;44.960;-0.698;2024-01-15T11:32:41;61.58;;;29.52;;
46717;SDS011;32448;44.960;-0.698;2024-01-15T11:35:10;72.35;;;30.42;;
46717;SDS011;32448;44.960;-0.698;2024-01-15T11:42:59;53.90;;;25.15;;
46717;SDS011;32448;44.960;-0.698;2024-01-15T11:45:27;62.17;;;25.98;;
46717;SDS011;32448;44.960;-0.698;2024-01-15T11:50:44;59.22;;;26.65;;
46717;SDS011;32448;44.960;-0.698;2024-01-15T11:56:14;56.42;;;26.30;;
46717;SDS011;32448;44.960;-0.698;2024-01-15T11:58:43;56.25;;;26.55;;
46717;SDS011;32448;44.960;-0.698;2024-01-15T12:01:10;53.60;;;25.20;;
46717;SDS011;32448;44.960;-0.698;2024-01-15T12:03:37;50.67;;;25.48;;
46717;SDS011;32448;44.960;-0.698;2024-01-15T12:06:05;49.33;;;24.33;;
46717;SDS011;32448;44.960;-0.698;2024-01-15T12:08:33;47.78;;;24.63;;
46717;SDS011;32448;44.960;-0.698;2024-01-15T12:11:03;48.90;;;25.55;;
46717;SDS011;32448;44.960;-0.698;2024-01-15T12:13:40;48.83;;;24.58;;
46717;SDS011;32448;44.960;-0.698;2024-01-15T12:16:07;40.80;;;22.02;;
46717;SDS011;32448;44.960;-0.698;2024-01-15T12:18:35;44.67;;;22.95;;
46717;SDS011;32448;44.960;-0.698;2024-01-15T12:21:03;38.33;;;21.27;;
46717;SDS011;32448;44.960;-0.698;2024-01-15T12:23:30;41.30;;;22.70;;
46717;SDS011;32448;44.960;-0.698;2024-01-15T12:25:57;38.35;;;21.90;;
46717;SDS011;32448;44.960;-0.698;2024-01-15T12:28:27;42.53;;;21.60;;
46717;SDS011;32448;44.960;-0.698;2024-01-15T12:30:55;40.50;;;22.17;;
46717;SDS011;32448;44.960;-0.698;2024-01-15T12:33:22;41.28;;;23.35;;
46717;SDS011;32448;44.960;-0.698;2024-01-15T12:35:52;47.00;;;24.58;;
46717;SDS011;32448;44.960;-0.698;2024-01-15T12:38:19;43.53;;;23.48;;
46717;SDS011;32448;44.960;-0.698;2024-01-15T12:40:47;42.55;;;24.55;;
46717;SDS011;32448;44.960;-0.698;2024-01-15T12:43:14;42.35;;;22.95;;
46717;SDS011;32448;44.960;-0.698;2024-01-15T12:45:41;39.03;;;22.17;;
46717;SDS011;32448;44.960;-0.698;2024-01-15T12:48:09;40.97;;;21.98;;
46717;SDS011;32448;44.960;-0.698;2024-01-15T12:50:37;42.20;;;22.80;;
46717;SDS011;32448;44.960;-0.698;2024-01-15T12:53:03;44.08;;;23.65;;
46717;SDS011;32448;44.960;-0.698;2024-01-15T12:55:30;39.05;;;23.25;;
46717;SDS011;32448;44.960;-0.698;2024-01-15T12:57:57;41.97;;;23.20;;
46717;SDS011;32448;44.960;-0.698;2024-01-15T13:00:25;40.13;;;22.95;;
46717;SDS011;32448;44.960;-0.698;2024-01-15T13:02:52;39.92;;;21.65;;
46717;SDS011;32448;44.960;-0.698;2024-01-15T13:05:21;39.63;;;22.02;;
46717;SDS011;32448;44.960;-0.698;2024-01-15T13:07:49;35.17;;;21.00;;
46717;SDS011;32448;44.960;-0.698;2024-01-15T13:10:16;34.10;;;20.58;;
46717;SDS011;32448;44.960;-0.698;2024-01-15T13:12:43;33.45;;;20.27;;
46717;SDS011;32448;44.960;-0.698;2024-01-15T13:15:10;36.88;;;21.98;;
46717;SDS011;32448;44.960;-0.698;2024-01-15T13:17:41;31.85;;;19.38;;
46717;SDS011;32448;44.960;-0.698;2024-01-15T13:20:10;47.05;;;27.63;;
46717;SDS011;32448;44.960;-0.698;2024-01-15T13:22:38;50.30;;;29.48;;
46717;SDS011;32448;44.960;-0.698;2024-01-15T13:25:08;45.28;;;27.58;;
46717;SDS011;32448;44.960;-0.698;2024-01-15T13:27:35;44.65;;;28.48;;
46717;SDS011;32448;44.960;-0.698;2024-01-15T13:30:04;38.13;;;26.05;;
46717;SDS011;32448;44.960;-0.698;2024-01-15T13:32:33;34.60;;;21.05;;
46717;SDS011;32448;44.960;-0.698;2024-01-15T13:35:00;25.23;;;15.82;;
46717;SDS011;32448;44.960;-0.698;2024-01-15T13:37:27;18.85;;;13.82;;
46717;SDS011;32448;44.960;-0.698;2024-01-15T13:39:54;23.63;;;14.52;;
46717;SDS011;32448;44.960;-0.698;2024-01-15T13:42:21;23.17;;;15.70;;
46717;SDS011;32448;44.960;-0.698;2024-01-15T13:44:49;21.45;;;15.27;;
46717;SDS011;32448;44.960;-0.698;2024-01-15T13:47:16;20.83;;;14.32;;
46717;SDS011;32448;44.960;-0.698;2024-01-15T13:49:43;22.70;;;14.55;;
46717;SDS011;32448;44.960;-0.698;2024-01-15T13:52:10;21.88;;;14.35;;
46717;SDS011;32448;44.960;-0.698;2024-01-15T13:54:37;24.35;;;15.65;;
46717;SDS011;32448;44.960;-0.698;2024-01-15T13:57:15;31.45;;;20.40;;
46717;SDS011;32448;44.960;-0.698;2024-01-15T13:59:43;38.20;;;24.60;;
46717;SDS011;32448;44.960;-0.698;2024-01-15T14:02:10;58.30;;;36.08;;
46717;SDS011;32448;44.960;-0.698;2024-01-15T14:04:38;56.50;;;35.13;;
46717;SDS011;32448;44.960;-0.698;2024-01-15T14:07:05;52.45;;;33.75;;
46717;SDS011;32448;44.960;-0.698;2024-01-15T14:09:33;48.17;;;29.25;;
46717;SDS011;32448;44.960;-0.698;2024-01-15T14:12:00;45.75;;;25.70;;
46717;SDS011;32448;44.960;-0.698;2024-01-15T14:14:27;44.42;;;25.02;;
46717;SDS011;32448;44.960;-0.698;2024-01-15T14:16:54;42.85;;;24.92;;
46717;SDS011;32448;44.960;-0.698;2024-01-15T14:19:20;70.80;;;31.70;;
46717;SDS011;32448;44.960;-0.698;2024-01-15T14:21:48;80.43;;;35.95;;
46717;SDS011;32448;44.960;-0.698;2024-01-15T14:24:15;82.45;;;39.13;;
46717;SDS011;32448;44.960;-0.698;2024-01-15T14:26:44;81.40;;;37.85;;